sensor_id;sensor_type;location;lat;lon;timestamp;pressure;altitude;pressure_sealevel;temperature;humidity
21817;BME280;13247;47.504;7.382;2023-10-31T00:02:00;96115.81;;;12.52;100.00
21817;BME280;13247;47.504;7.382;2023-10-31T00:04:45;96124.31;;;12.42;100.00
21817;BME280;13247;47.504;7.382;2023-10-31T00:07:30;96121.91;;;12.39;100.00
21817;BME280;13247;47.504;7.382;2023-10-31T00:10:14;96126.97;;;12.42;100.00
21817;BME280;13247;47.504;7.382;2023-10-31T00:12:59;96127.06;;;12.40;100.00
21817;BME280;13247;47.504;7.382;2023-10-31T00:15:43;96135.97;;;12.38;100.00
21817;BME280;13247;47.504;7.382;2023-10-31T00:18:28;96139.94;;;12.45;100.00
21817;BME280;13247;47.504;7.382;2023-10-31T00:21:13;96139.97;;;12.29;100.00
21817;BME280;13247;47.504;7.382;2023-10-31T00:23:58;96154.91;;;12.13;100.00
21817;BME280;13247;47.504;7.382;2023-10-31T00:26:43;96164.47;;;12.30;100.00
21817;BME280;13247;47.504;7.382;2023-10-31T00:29:28;96161.44;;;12.22;100.00
21817;BME280;13247;47.504;7.382;2023-10-31T00:32:13;96159.22;;;12.30;100.00
21817;BME280;13247;47.504;7.382;2023-10-31T00:34:58;96156.03;;;12.25;100.00
21817;BME280;13247;47.504;7.382;2023-10-31T00:37:43;96157.69;;;12.26;100.00
21817;BME280;13247;47.504;7.382;2023-10-31T00:40:28;96147.94;;;12.28;100.00
21817;BME280;13247;47.504;7.382;2023-10-31T00:43:13;96150.75;;;12.25;100.00
21817;BME280;13247;47.504;7.382;2023-10-31T00:45:58;96154.47;;;12.21;100.00
21817;BME280;13247;47.504;7.382;2023-10-31T00:48:43;96149.22;;;12.21;100.00
21817;BME280;13247;47.504;7.382;2023-10-31T00:51:28;96145.16;;;12.15;100.00
21817;BME280;13247;47.504;7.382;2023-10-31T00:54:12;96160.88;;;12.01;100.00
21817;BME280;13247;47.504;7.382;2023-10-31T00:56:57;96159.25;;;12.14;100.00
21817;BME280;13247;47.504;7.382;2023-10-31T00:59:42;96152.59;;;12.23;100.00
21817;BME280;13247;47.504;7.382;2023-10-31T01:02:27;96161.59;;;12.34;100.00
21817;BME280;13247;47.504;7.382;2023-10-31T01:05:12;96149.34;;;12.33;100.00
21817;BME280;13247;47.504;7.382;2023-10-31T01:07:56;96156.44;;;12.17;100.00
21817;BME280;13247;47.504;7.382;2023-10-31T01:10:41;96162.03;;;12.27;100.00
21817;BME280;13247;47.504;7.382;2023-10-31T01:13:25;96164.56;;;12.28;100.00
21817;BME280;13247;47.504;7.382;2023-10-31T01:16:09;96163.13;;;12.23;100.00
21817;BME280;13247;47.504;7.382;2023-10-31T01:18:54;96167.81;;;12.18;100.00
21817;BME280;13247;47.504;7.382;2023-10-31T01:21:38;96159.41;;;12.27;100.00
21817;BME280;13247;47.504;7.382;2023-10-31T01:24:23;96170.59;;;12.30;100.00
21817;BME280;13247;47.504;7.382;2023-10-31T01:27:08;96175.84;;;12.30;100.00
21817;BME280;13247;47.504;7.382;2023-10-31T01:29:53;96171.09;;;12.21;100.00
21817;BME280;13247;47.504;7.382;2023-10-31T01:32:37;96162.94;;;12.26;100.00
21817;BME280;13247;47.504;7.382;2023-10-31T01:35:22;96179.94;;;12.20;100.00
21817;BME280;13247;47.504;7.382;2023-10-31T01:38:06;96173.31;;;12.29;100.00
21817;BME280;13247;47.504;7.382;2023-10-31T01:40:51;96178.97;;;12.21;100.00
21817;BME280;13247;47.504;7.382;2023-10-31T01:43:37;96179.22;;;12.17;100.00
21817;BME280;13247;47.504;7.382;2023-10-31T01:46:22;96181.09;;;12.15;100.00
21817;BME280;13247;47.504;7.382;2023-10-31T01:49:06;96185.25;;;12.19;100.00
21817;BME280;13247;47.504;7.382;2023-10-31T01:51:51;96189.84;;;12.15;100.00
21817;BME280;13247;47.504;7.382;2023-10-31T01:54:36;96188.41;;;12.10;100.00
21817;BME280;13247;47.504;7.382;2023-10-31T01:57:22;96183.97;;;12.10;100.00
21817;BME280;13247;47.504;7.382;2023-10-31T02:00:07;96187.81;;;12.05;100.00
21817;BME280;13247;47.504;7.382;2023-10-31T02:02:53;96198.81;;;12.11;100.00
21817;BME280;13247;47.504;7.382;2023-10-31T02:05:37;96200.44;;;12.14;100.00
21817;BME280;13247;47.504;7.382;2023-10-31T02:08:22;96202.88;;;12.17;100.00
21817;BME280;13247;47.504;7.382;2023-10-31T02:11:06;96207.47;;;11.98;100.00
21817;BME280;13247;47.504;7.382;2023-10-31T02:13:54;96211.28;;;12.08;100.00
21817;BME280;13247;47.504;7.382;2023-10-31T02:16:39;96210.44;;;12.07;100.00
21817;BME280;13247;47.504;7.382;2023-10-31T02:19:23;96210.69;;;12.03;100.00
21817;BME280;13247;47.504;7.382;2023-10-31T02:22:08;96212.97;;;12.09;100.00
21817;BME280;13247;47.504;7.382;2023-10-31T02:24:53;96212.47;;;12.02;100.00
21817;BME280;13247;47.504;7.382;2023-10-31T02:27:38;96210.53;;;12.06;100.00
21817;BME280;13247;47.504;7.382;2023-10-31T02:30:23;96220.94;;;11.92;100.00
21817;BME280;13247;47.504;7.382;2023-10-31T02:33:08;96228.88;;;11.74;100.00
21817;BME280;13247;47.504;7.382;2023-10-31T02:35:52;96218.72;;;11.84;100.00
21817;BME280;13247;47.504;7.382;2023-10-31T02:38:37;96229.06;;;11.71;100.00
21817;BME280;13247;47.504;7.382;2023-10-31T02:41:22;96229.06;;;11.87;100.00
21817;BME280;13247;47.504;7.382;2023-10-31T02:44:07;96230.91;;;11.69;100.00
21817;BME280;13247;47.504;7.382;2023-10-31T02:46:52;96229.50;;;11.62;100.00
21817;BME280;13247;47.504;7.382;2023-10-31T02:49:37;96238.94;;;11.66;100.00
21817;BME280;13247;47.504;7.382;2023-10-31T02:52:21;96244.63;;;11.74;100.00
21817;BME280;13247;47.504;7.382;2023-10-31T02:55:06;96248.97;;;11.58;100.00
21817;BME280;13247;47.504;7.382;2023-10-31T02:57:51;96264.28;;;11.67;100.00
21817;BME280;13247;47.504;7.382;2023-10-31T03:00:35;96260.16;;;11.62;100.00
21817;BME280;13247;47.504;7.382;2023-10-31T03:03:20;96255.00;;;11.60;100.00
21817;BME280;13247;47.504;7.382;2023-10-31T03:06:08;96256.16;;;11.55;100.00
21817;BME280;13247;47.504;7.382;2023-10-31T03:08:52;96268.44;;;11.54;100.00
21817;BME280;13247;47.504;7.382;2023-10-31T03:11:37;96253.94;;;11.47;100.00
21817;BME280;13247;47.504;7.382;2023-10-31T03:14:22;96242.50;;;11.48;100.00
21817;BME280;13247;47.504;7.382;2023-10-31T03:17:06;96243.09;;;11.53;100.00
21817;BME280;13247;47.504;7.382;2023-10-31T03:19:51;96250.22;;;11.34;100.00
21817;BME280;13247;47.504;7.382;2023-10-31T03:22:35;96252.63;;;11.39;100.00
21817;BME280;13247;47.504;7.382;2023-10-31T03:25:20;96250.53;;;11.45;100.00
21817;BME280;13247;47.504;7.382;2023-10-31T03:28:17;96241.41;;;11.52;100.00
21817;BME280;13247;47.504;7.382;2023-10-31T03:31:02;96234.13;;;11.57;100.00
21817;BME280;13247;47.504;7.382;2023-10-31T03:33:47;96230.31;;;11.47;100.00
21817;BME280;13247;47.504;7.382;2023-10-31T03:36:32;96224.38;;;11.44;100.00
21817;BME280;13247;47.504;7.382;2023-10-31T03:39:17;96235.25;;;11.36;100.00
21817;BME280;13247;47.504;7.382;2023-10-31T03:42:01;96223.84;;;11.37;100.00
21817;BME280;13247;47.504;7.382;2023-10-31T03:44:46;96218.44;;;11.40;100.00
21817;BME280;13247;47.504;7.382;2023-10-31T03:47:31;96228.66;;;11.29;100.00
21817;BME280;13247;47.504;7.382;2023-10-31T03:50:15;96233.09;;;11.44;100.00
21817;BME280;13247;47.504;7.382;2023-10-31T03:53:00;96248.25;;;11.22;100.00
21817;BME280;13247;47.504;7.382;2023-10-31T03:55:44;96244.16;;;11.34;100.00
21817;BME280;13247;47.504;7.382;2023-10-31T03:58:29;96243.19;;;11.52;100.00
21817;BME280;13247;47.504;7.382;2023-10-31T04:01:17;96249.97;;;11.56;100.00
21817;BME280;13247;47.504;7.382;2023-10-31T04:04:02;96251.50;;;11.60;100.00
21817;BME280;13247;47.504;7.382;2023-10-31T04:06:47;96242.00;;;11.57;100.00
21817;BME280;13247;47.504;7.382;2023-10-31T04:09:31;96244.97;;;11.68;100.00
21817;BME280;13247;47.504;7.382;2023-10-31T04:12:17;96243.94;;;11.71;100.00
21817;BME280;13247;47.504;7.382;2023-10-31T04:15:02;96248.34;;;11.70;100.00
21817;BME280;13247;47.504;7.382;2023-10-31T04:17:47;96260.31;;;11.59;100.00
21817;BME280;13247;47.504;7.382;2023-10-31T04:20:31;96261.00;;;11.62;100.00
21817;BME280;13247;47.504;7.382;2023-10-31T04:23:16;96258.19;;;11.67;100.00
21817;BME280;13247;47.504;7.382;2023-10-31T04:26:01;96268.19;;;11.76;100.00
21817;BME280;13247;47.504;7.382;2023-10-31T04:28:46;96269.03;;;11.76;100.00
21817;BME280;13247;47.504;7.382;2023-10-31T04:31:30;96263.25;;;11.70;100.00
21817;BME280;13247;47.504;7.382;2023-10-31T04:34:15;96269.31;;;11.88;100.00
21817;BME280;13247;47.504;7.382;2023-10-31T04:36:59;96268.19;;;11.76;100.00
21817;BME280;13247;47.504;7.382;2023-10-31T04:39:47;96270.25;;;11.87;100.00
21817;BME280;13247;47.504;7.382;2023-10-31T04:42:32;96279.25;;;11.82;100.00
21817;BME280;13247;47.504;7.382;2023-10-31T04:45:20;96278.97;;;11.87;100.00
21817;BME280;13247;47.504;7.382;2023-10-31T04:48:05;96283.44;;;11.85;100.00
21817;BME280;13247;47.504;7.382;2023-10-31T04:50:50;96289.41;;;11.89;100.00
21817;BME280;13247;47.504;7.382;2023-10-31T04:53:34;96294.91;;;11.84;100.00
21817;BME280;13247;47.504;7.382;2023-10-31T04:56:19;96287.38;;;11.94;100.00
21817;BME280;13247;47.504;7.382;2023-10-31T04:59:04;96293.97;;;11.85;100.00
21817;BME280;13247;47.504;7.382;2023-10-31T05:01:50;96305.97;;;11.73;100.00
21817;BME280;13247;47.504;7.382;2023-10-31T05:04:38;96312.38;;;11.68;100.00
21817;BME280;13247;47.504;7.382;2023-10-31T05:07:24;96327.75;;;11.75;100.00
21817;BME280;13247;47.504;7.382;2023-10-31T05:10:09;96325.88;;;11.60;100.00
21817;BME280;13247;47.504;7.382;2023-10-31T05:12:54;96329.28;;;11.62;100.00
21817;BME280;13247;47.504;7.382;2023-10-31T05:15:38;96341.25;;;11.68;100.00
21817;BME280;13247;47.504;7.382;2023-10-31T05:18:24;96340.88;;;11.75;100.00
21817;BME280;13247;47.504;7.382;2023-10-31T05:21:08;96354.44;;;11.49;100.00
21817;BME280;13247;47.504;7.382;2023-10-31T05:23:53;96356.78;;;11.72;100.00
21817;BME280;13247;47.504;7.382;2023-10-31T05:26:40;96360.34;;;11.89;100.00
21817;BME280;13247;47.504;7.382;2023-10-31T05:29:27;96348.09;;;12.05;100.00
21817;BME280;13247;47.504;7.382;2023-10-31T05:32:12;96336.38;;;12.10;100.00
21817;BME280;13247;47.504;7.382;2023-10-31T05:34:57;96349.47;;;12.12;100.00
21817;BME280;13247;47.504;7.382;2023-10-31T05:37:41;96346.84;;;12.12;100.00
21817;BME280;13247;47.504;7.382;2023-10-31T05:40:26;96339.81;;;12.28;100.00
21817;BME280;13247;47.504;7.382;2023-10-31T05:43:12;96338.88;;;12.13;100.00
21817;BME280;13247;47.504;7.382;2023-10-31T05:45:56;96343.59;;;12.07;100.00
21817;BME280;13247;47.504;7.382;2023-10-31T05:48:45;96363.94;;;11.52;100.00
21817;BME280;13247;47.504;7.382;2023-10-31T05:51:30;96384.50;;;11.44;100.00
21817;BME280;13247;47.504;7.382;2023-10-31T05:54:15;96389.34;;;11.51;100.00
21817;BME280;13247;47.504;7.382;2023-10-31T05:56:59;96379.06;;;11.64;100.00
21817;BME280;13247;47.504;7.382;2023-10-31T05:59:47;96377.19;;;11.67;100.00
21817;BME280;13247;47.504;7.382;2023-10-31T06:02:32;96368.81;;;11.76;100.00
21817;BME280;13247;47.504;7.382;2023-10-31T06:05:17;96370.75;;;11.90;100.00
21817;BME280;13247;47.504;7.382;2023-10-31T06:08:01;96372.97;;;11.98;100.00
21817;BME280;13247;47.504;7.382;2023-10-31T06:10:46;96369.78;;;12.08;100.00
21817;BME280;13247;47.504;7.382;2023-10-31T06:13:30;96374.06;;;11.94;100.00
21817;BME280;13247;47.504;7.382;2023-10-31T06:16:16;96372.53;;;11.90;100.00
21817;BME280;13247;47.504;7.382;2023-10-31T06:19:00;96384.56;;;11.94;100.00
21817;BME280;13247;47.504;7.382;2023-10-31T06:21:45;96397.66;;;11.78;100.00
21817;BME280;13247;47.504;7.382;2023-10-31T06:24:30;96394.72;;;11.84;100.00
21817;BME280;13247;47.504;7.382;2023-10-31T06:27:14;96410.84;;;11.76;100.00
21817;BME280;13247;47.504;7.382;2023-10-31T06:29:59;96406.00;;;11.86;100.00
21817;BME280;13247;47.504;7.382;2023-10-31T06:32:47;96407.97;;;11.98;100.00
21817;BME280;13247;47.504;7.382;2023-10-31T06:35:31;96403.13;;;11.91;100.00
21817;BME280;13247;47.504;7.382;2023-10-31T06:38:16;96408.97;;;11.96;100.00
21817;BME280;13247;47.504;7.382;2023-10-31T06:41:00;96403.41;;;12.02;100.00
21817;BME280;13247;47.504;7.382;2023-10-31T06:43:45;96404.25;;;12.19;100.00
21817;BME280;13247;47.504;7.382;2023-10-31T06:46:30;96409.47;;;12.04;100.00
21817;BME280;13247;47.504;7.382;2023-10-31T06:49:15;96420.97;;;11.84;100.00
21817;BME280;13247;47.504;7.382;2023-10-31T06:52:00;96425.78;;;11.76;100.00
21817;BME280;13247;47.504;7.382;2023-10-31T06:54:45;96427.88;;;11.87;100.00
21817;BME280;13247;47.504;7.382;2023-10-31T06:57:29;96444.16;;;11.93;100.00
21817;BME280;13247;47.504;7.382;2023-10-31T07:00:15;96436.78;;;12.17;100.00
21817;BME280;13247;47.504;7.382;2023-10-31T07:02:59;96439.91;;;12.08;100.00
21817;BME280;13247;47.504;7.382;2023-10-31T07:05:49;96447.78;;;12.08;100.00
21817;BME280;13247;47.504;7.382;2023-10-31T07:08:33;96448.25;;;11.99;100.00
21817;BME280;13247;47.504;7.382;2023-10-31T07:11:18;96456.13;;;11.99;100.00
21817;BME280;13247;47.504;7.382;2023-10-31T07:14:02;96451.78;;;11.98;100.00
21817;BME280;13247;47.504;7.382;2023-10-31T07:16:48;96444.22;;;12.09;100.00
21817;BME280;13247;47.504;7.382;2023-10-31T07:19:33;96445.75;;;11.96;100.00
21817;BME280;13247;47.504;7.382;2023-10-31T07:22:17;96446.47;;;11.82;100.00
21817;BME280;13247;47.504;7.382;2023-10-31T07:25:02;96456.91;;;12.01;100.00
21817;BME280;13247;47.504;7.382;2023-10-31T07:27:48;96451.78;;;11.98;100.00
21817;BME280;13247;47.504;7.382;2023-10-31T07:30:32;96458.31;;;12.08;100.00
21817;BME280;13247;47.504;7.382;2023-10-31T07:33:18;96444.44;;;12.21;100.00
21817;BME280;13247;47.504;7.382;2023-10-31T07:36:03;96456.66;;;12.22;100.00
21817;BME280;13247;47.504;7.382;2023-10-31T07:38:48;96455.50;;;12.11;100.00
21817;BME280;13247;47.504;7.382;2023-10-31T07:41:33;96450.88;;;12.16;100.00
21817;BME280;13247;47.504;7.382;2023-10-31T07:44:18;96454.94;;;12.21;100.00
21817;BME280;13247;47.504;7.382;2023-10-31T07:47:02;96447.25;;;12.34;100.00
21817;BME280;13247;47.504;7.382;2023-10-31T07:49:47;96451.63;;;12.35;100.00
21817;BME280;13247;47.504;7.382;2023-10-31T07:52:33;96450.88;;;12.48;100.00
21817;BME280;13247;47.504;7.382;2023-10-31T07:55:17;96446.78;;;12.43;100.00
21817;BME280;13247;47.504;7.382;2023-10-31T07:58:02;96457.25;;;12.27;100.00
21817;BME280;13247;47.504;7.382;2023-10-31T08:00:46;96458.94;;;12.45;100.00
21817;BME280;13247;47.504;7.382;2023-10-31T08:03:31;96463.44;;;12.59;100.00
21817;BME280;13247;47.504;7.382;2023-10-31T08:06:16;96468.78;;;12.57;100.00
21817;BME280;13247;47.504;7.382;2023-10-31T08:09:01;96476.25;;;12.65;100.00
21817;BME280;13247;47.504;7.382;2023-10-31T08:11:46;96476.25;;;12.65;100.00
21817;BME280;13247;47.504;7.382;2023-10-31T08:14:31;96471.22;;;12.93;100.00
21817;BME280;13247;47.504;7.382;2023-10-31T08:17:16;96471.28;;;13.24;100.00
21817;BME280;13247;47.504;7.382;2023-10-31T08:20:01;96467.03;;;13.37;100.00
21817;BME280;13247;47.504;7.382;2023-10-31T08:22:47;96466.25;;;13.51;100.00
21817;BME280;13247;47.504;7.382;2023-10-31T08:25:32;96465.50;;;13.33;100.00
21817;BME280;13247;47.504;7.382;2023-10-31T08:28:17;96466.69;;;13.44;100.00
21817;BME280;13247;47.504;7.382;2023-10-31T08:31:02;96455.47;;;13.24;100.00
21817;BME280;13247;47.504;7.382;2023-10-31T08:33:48;96458.41;;;13.50;100.00
21817;BME280;13247;47.504;7.382;2023-10-31T08:36:32;96464.91;;;13.28;100.00
21817;BME280;13247;47.504;7.382;2023-10-31T08:39:17;96456.84;;;13.31;100.00
21817;BME280;13247;47.504;7.382;2023-10-31T08:42:01;96454.38;;;13.28;100.00
21817;BME280;13247;47.504;7.382;2023-10-31T08:44:46;96445.13;;;13.21;100.00
21817;BME280;13247;47.504;7.382;2023-10-31T08:47:31;96446.34;;;13.61;100.00
21817;BME280;13247;47.504;7.382;2023-10-31T08:50:15;96446.75;;;13.69;100.00
21817;BME280;13247;47.504;7.382;2023-10-31T08:53:00;96439.09;;;13.65;100.00
21817;BME280;13247;47.504;7.382;2023-10-31T08:55:44;96448.72;;;13.66;100.00
21817;BME280;13247;47.504;7.382;2023-10-31T08:58:29;96445.72;;;13.72;100.00
21817;BME280;13247;47.504;7.382;2023-10-31T09:01:14;96438.59;;;13.74;100.00
21817;BME280;13247;47.504;7.382;2023-10-31T09:03:58;96447.28;;;13.90;100.00
21817;BME280;13247;47.504;7.382;2023-10-31T09:06:43;96446.66;;;13.71;100.00
21817;BME280;13247;47.504;7.382;2023-10-31T09:09:28;96453.38;;;13.76;100.00
21817;BME280;13247;47.504;7.382;2023-10-31T09:12:13;96442.63;;;13.79;100.00
21817;BME280;13247;47.504;7.382;2023-10-31T09:14:58;96441.25;;;13.88;100.00
21817;BME280;13247;47.504;7.382;2023-10-31T09:17:42;96442.38;;;13.84;100.00
21817;BME280;13247;47.504;7.382;2023-10-31T09:20:27;96442.13;;;13.73;100.00
21817;BME280;13247;47.504;7.382;2023-10-31T09:23:12;96435.50;;;13.81;100.00
21817;BME280;13247;47.504;7.382;2023-10-31T09:25:57;96441.59;;;13.97;100.00
21817;BME280;13247;47.504;7.382;2023-10-31T09:28:43;96435.59;;;13.80;100.00
21817;BME280;13247;47.504;7.382;2023-10-31T09:31:34;96431.66;;;13.87;100.00
21817;BME280;13247;47.504;7.382;2023-10-31T09:34:18;96433.94;;;13.93;100.00
21817;BME280;13247;47.504;7.382;2023-10-31T09:37:03;96422.66;;;14.05;100.00
21817;BME280;13247;47.504;7.382;2023-10-31T09:39:47;96423.53;;;14.19;100.00
21817;BME280;13247;47.504;7.382;2023-10-31T09:42:32;96429.53;;;14.37;100.00
21817;BME280;13247;47.504;7.382;2023-10-31T09:45:17;96415.75;;;14.32;100.00
21817;BME280;13247;47.504;7.382;2023-10-31T09:48:02;96427.81;;;14.36;100.00
21817;BME280;13247;47.504;7.382;2023-10-31T09:50:47;96434.34;;;14.59;100.00
21817;BME280;13247;47.504;7.382;2023-10-31T09:53:33;96424.25;;;14.51;100.00
21817;BME280;13247;47.504;7.382;2023-10-31T09:56:22;96418.50;;;14.59;100.00
21817;BME280;13247;47.504;7.382;2023-10-31T09:59:06;96425.19;;;14.64;100.00
21817;BME280;13247;47.504;7.382;2023-10-31T10:01:51;96426.97;;;14.64;100.00
21817;BME280;13247;47.504;7.382;2023-10-31T10:04:37;96427.56;;;14.69;100.00
21817;BME280;13247;47.504;7.382;2023-10-31T10:07:21;96412.22;;;14.61;100.00
21817;BME280;13247;47.504;7.382;2023-10-31T10:10:09;96419.53;;;14.84;100.00
21817;BME280;13247;47.504;7.382;2023-10-31T10:12:55;96416.31;;;14.79;100.00
21817;BME280;13247;47.504;7.382;2023-10-31T10:15:49;96425.72;;;14.98;100.00
21817;BME280;13247;47.504;7.382;2023-10-31T10:18:35;96424.06;;;14.82;100.00
21817;BME280;13247;47.504;7.382;2023-10-31T10:21:21;96423.97;;;14.84;100.00
21817;BME280;13247;47.504;7.382;2023-10-31T10:24:06;96428.56;;;14.80;100.00
21817;BME280;13247;47.504;7.382;2023-10-31T10:26:51;96429.41;;;14.81;100.00
21817;BME280;13247;47.504;7.382;2023-10-31T10:29:38;96422.25;;;14.83;100.00
21817;BME280;13247;47.504;7.382;2023-10-31T10:32:23;96428.03;;;14.75;100.00
21817;BME280;13247;47.504;7.382;2023-10-31T10:35:08;96433.03;;;14.80;100.00
21817;BME280;13247;47.504;7.382;2023-10-31T10:37:55;96441.59;;;14.83;100.00
21817;BME280;13247;47.504;7.382;2023-10-31T10:40:46;96438.19;;;14.81;100.00
21817;BME280;13247;47.504;7.382;2023-10-31T10:43:33;96423.50;;;14.77;100.00
21817;BME280;13247;47.504;7.382;2023-10-31T10:46:24;96421.63;;;14.65;100.00
21817;BME280;13247;47.504;7.382;2023-10-31T10:49:10;96419.06;;;14.78;100.00
21817;BME280;13247;47.504;7.382;2023-10-31T10:52:18;96422.75;;;14.75;100.00
21817;BME280;13247;47.504;7.382;2023-10-31T10:55:13;96420.66;;;14.94;100.00
21817;BME280;13247;47.504;7.382;2023-10-31T10:58:05;96420.81;;;15.06;100.00
21817;BME280;13247;47.504;7.382;2023-10-31T11:00:50;96415.22;;;15.10;100.00
21817;BME280;13247;47.504;7.382;2023-10-31T11:03:36;96417.19;;;15.21;100.00
21817;BME280;13247;47.504;7.382;2023-10-31T11:06:21;96408.56;;;15.31;100.00
21817;BME280;13247;47.504;7.382;2023-10-31T11:09:06;96411.75;;;15.10;100.00
21817;BME280;13247;47.504;7.382;2023-10-31T11:11:52;96410.16;;;15.34;100.00
21817;BME280;13247;47.504;7.382;2023-10-31T11:14:38;96405.16;;;15.29;100.00
21817;BME280;13247;47.504;7.382;2023-10-31T11:17:31;96403.84;;;15.36;100.00
21817;BME280;13247;47.504;7.382;2023-10-31T11:20:18;96396.50;;;15.01;100.00
21817;BME280;13247;47.504;7.382;2023-10-31T11:23:04;96407.97;;;15.14;100.00
21817;BME280;13247;47.504;7.382;2023-10-31T11:25:51;96409.19;;;15.22;100.00
21817;BME280;13247;47.504;7.382;2023-10-31T11:28:37;96415.28;;;15.23;100.00
21817;BME280;13247;47.504;7.382;2023-10-31T11:31:22;96415.72;;;15.03;100.00
21817;BME280;13247;47.504;7.382;2023-10-31T11:34:06;96417.19;;;14.80;100.00
21817;BME280;13247;47.504;7.382;2023-10-31T11:36:52;96415.84;;;15.01;100.00
21817;BME280;13247;47.504;7.382;2023-10-31T11:39:36;96423.09;;;14.83;100.00
21817;BME280;13247;47.504;7.382;2023-10-31T11:42:21;96426.72;;;14.82;100.00
21817;BME280;13247;47.504;7.382;2023-10-31T11:45:08;96441.75;;;14.80;100.00
21817;BME280;13247;47.504;7.382;2023-10-31T11:47:53;96468.00;;;14.69;100.00
21817;BME280;13247;47.504;7.382;2023-10-31T11:50:39;96485.13;;;14.18;100.00
21817;BME280;13247;47.504;7.382;2023-10-31T11:53:24;96483.69;;;14.13;100.00
21817;BME280;13247;47.504;7.382;2023-10-31T11:56:10;96479.25;;;14.29;100.00
21817;BME280;13247;47.504;7.382;2023-10-31T11:59:05;96483.53;;;14.16;100.00
21817;BME280;13247;47.504;7.382;2023-10-31T12:01:53;96480.56;;;14.36;100.00
21817;BME280;13247;47.504;7.382;2023-10-31T12:04:37;96479.16;;;14.45;100.00
21817;BME280;13247;47.504;7.382;2023-10-31T12:07:22;96493.59;;;14.24;100.00
21817;BME280;13247;47.504;7.382;2023-10-31T12:10:07;96492.94;;;14.50;100.00
21817;BME280;13247;47.504;7.382;2023-10-31T12:12:52;96498.50;;;14.45;100.00
21817;BME280;13247;47.504;7.382;2023-10-31T12:15:37;96503.53;;;14.34;100.00
21817;BME280;13247;47.504;7.382;2023-10-31T12:18:22;96500.84;;;14.64;100.00
21817;BME280;13247;47.504;7.382;2023-10-31T12:21:06;96518.66;;;14.46;100.00
21817;BME280;13247;47.504;7.382;2023-10-31T12:24:03;96537.72;;;14.06;100.00
21817;BME280;13247;47.504;7.382;2023-10-31T12:26:48;96536.47;;;13.97;100.00
21817;BME280;13247;47.504;7.382;2023-10-31T12:29:33;96541.97;;;14.38;100.00
21817;BME280;13247;47.504;7.382;2023-10-31T12:32:18;96541.44;;;14.47;100.00
21817;BME280;13247;47.504;7.382;2023-10-31T12:35:03;96536.38;;;14.44;100.00
21817;BME280;13247;47.504;7.382;2023-10-31T12:37:49;96525.41;;;14.36;100.00
21817;BME280;13247;47.504;7.382;2023-10-31T12:40:34;96532.22;;;14.25;100.00
21817;BME280;13247;47.504;7.382;2023-10-31T12:43:20;96529.66;;;14.39;100.00
21817;BME280;13247;47.504;7.382;2023-10-31T12:46:41;96526.16;;;14.38;100.00
21817;BME280;13247;47.504;7.382;2023-10-31T12:49:25;96529.69;;;14.53;100.00
21817;BME280;13247;47.504;7.382;2023-10-31T12:52:10;96522.06;;;14.76;100.00
21817;BME280;13247;47.504;7.382;2023-10-31T12:54:56;96529.72;;;14.81;100.00
21817;BME280;13247;47.504;7.382;2023-10-31T12:57:41;96525.94;;;14.85;100.00
21817;BME280;13247;47.504;7.382;2023-10-31T13:00:33;96530.47;;;14.83;100.00
21817;BME280;13247;47.504;7.382;2023-10-31T13:03:18;96529.06;;;14.77;100.00
21817;BME280;13247;47.504;7.382;2023-10-31T13:06:17;96542.44;;;14.60;100.00
21817;BME280;13247;47.504;7.382;2023-10-31T13:09:02;96539.94;;;14.43;100.00
21817;BME280;13247;47.504;7.382;2023-10-31T13:11:50;96537.53;;;14.68;100.00
21817;BME280;13247;47.504;7.382;2023-10-31T13:14:35;96532.09;;;14.71;100.00
21817;BME280;13247;47.504;7.382;2023-10-31T13:17:21;96544.91;;;14.77;100.00
21817;BME280;13247;47.504;7.382;2023-10-31T13:20:07;96539.88;;;14.59;100.00
21817;BME280;13247;47.504;7.382;2023-10-31T13:22:53;96535.63;;;14.56;100.00
21817;BME280;13247;47.504;7.382;2023-10-31T13:25:37;96530.03;;;14.90;100.00
21817;BME280;13247;47.504;7.382;2023-10-31T13:28:22;96523.97;;;15.03;100.00
21817;BME280;13247;47.504;7.382;2023-10-31T13:31:07;96516.31;;;15.12;100.00
21817;BME280;13247;47.504;7.382;2023-10-31T13:33:52;96520.78;;;15.12;100.00
21817;BME280;13247;47.504;7.382;2023-10-31T13:36:37;96519.63;;;15.16;100.00
21817;BME280;13247;47.504;7.382;2023-10-31T13:39:23;96520.66;;;15.13;100.00
21817;BME280;13247;47.504;7.382;2023-10-31T13:42:07;96516.78;;;15.47;100.00
21817;BME280;13247;47.504;7.382;2023-10-31T13:44:54;96531.50;;;15.51;100.00
21817;BME280;13247;47.504;7.382;2023-10-31T13:47:39;96519.78;;;15.41;100.00
21817;BME280;13247;47.504;7.382;2023-10-31T13:50:24;96538.50;;;15.52;100.00
21817;BME280;13247;47.504;7.382;2023-10-31T13:53:09;96543.22;;;15.33;100.00
21817;BME280;13247;47.504;7.382;2023-10-31T13:55:54;96556.78;;;15.13;100.00
21817;BME280;13247;47.504;7.382;2023-10-31T13:58:39;96554.41;;;15.36;100.00
21817;BME280;13247;47.504;7.382;2023-10-31T14:01:23;96561.31;;;15.39;100.00
21817;BME280;13247;47.504;7.382;2023-10-31T14:04:10;96573.94;;;15.34;100.00
21817;BME280;13247;47.504;7.382;2023-10-31T14:06:55;96575.84;;;15.18;100.00
21817;BME280;13247;47.504;7.382;2023-10-31T14:09:39;96581.25;;;15.16;100.00
21817;BME280;13247;47.504;7.382;2023-10-31T14:12:24;96581.88;;;15.20;100.00
21817;BME280;13247;47.504;7.382;2023-10-31T14:15:09;96589.81;;;15.20;100.00
21817;BME280;13247;47.504;7.382;2023-10-31T14:17:54;96593.22;;;15.22;100.00
21817;BME280;13247;47.504;7.382;2023-10-31T14:20:38;96601.47;;;15.02;100.00
21817;BME280;13247;47.504;7.382;2023-10-31T14:23:25;96623.50;;;14.72;100.00
21817;BME280;13247;47.504;7.382;2023-10-31T14:26:10;96634.53;;;14.49;100.00